sensor_id;sensor_type;location;lat;lon;timestamp;P1;durP1;ratioP1;P2;durP2;ratioP2
72949;SDS011;61101;45.710;9.590;2022-07-25T00:00:26;11.48;;;7.72;;
72949;SDS011;61101;45.710;9.590;2022-07-25T00:02:51;12.52;;;8.02;;
72949;SDS011;61101;45.710;9.590;2022-07-25T00:05:16;12.87;;;7.33;;
72949;SDS011;61101;45.710;9.590;2022-07-25T00:07:42;14.30;;;7.97;;
72949;SDS011;61101;45.710;9.590;2022-07-25T00:10:07;11.52;;;7.93;;
72949;SDS011;61101;45.710;9.590;2022-07-25T00:12:33;14.98;;;8.52;;
72949;SDS011;61101;45.710;9.590;2022-07-25T00:14:58;13.27;;;7.78;;
72949;SDS011;61101;45.710;9.590;2022-07-25T00:17:23;12.57;;;8.32;;
72949;SDS011;61101;45.710;9.590;2022-07-25T00:19:48;12.85;;;8.35;;
72949;SDS011;61101;45.710;9.590;2022-07-25T00:22:14;14.63;;;8.25;;
72949;SDS011;61101;45.710;9.590;2022-07-25T00:24:39;14.45;;;7.38;;
72949;SDS011;61101;45.710;9.590;2022-07-25T00:27:04;16.25;;;8.38;;
72949;SDS011;61101;45.710;9.590;2022-07-25T00:29:30;12.55;;;7.65;;
72949;SDS011;61101;45.710;9.590;2022-07-25T00:31:55;15.80;;;8.30;;
72949;SDS011;61101;45.710;9.590;2022-07-25T00:34:20;14.88;;;9.55;;
72949;SDS011;61101;45.710;9.590;2022-07-25T00:36:46;14.68;;;8.00;;
72949;SDS011;61101;45.710;9.590;2022-07-25T00:39:11;12.60;;;7.50;;
72949;SDS011;61101;45.710;9.590;2022-07-25T00:41:37;13.15;;;8.82;;
72949;SDS011;61101;45.710;9.590;2022-07-25T00:44:02;13.45;;;7.38;;
72949;SDS011;61101;45.710;9.590;2022-07-25T00:46:27;13.80;;;8.75;;
72949;SDS011;61101;45.710;9.590;2022-07-25T00:48:54;13.48;;;8.23;;
72949;SDS011;61101;45.710;9.590;2022-07-25T00:51:20;13.30;;;7.70;;
72949;SDS011;61101;45.710;9.590;2022-07-25T00:53:45;11.95;;;7.78;;
72949;SDS011;61101;45.710;9.590;2022-07-25T00:56:11;12.52;;;7.38;;
72949;SDS011;61101;45.710;9.590;2022-07-25T00:58:36;12.60;;;8.48;;
72949;SDS011;61101;45.710;9.590;2022-07-25T01:01:02;12.15;;;7.10;;
72949;SDS011;61101;45.710;9.590;2022-07-25T01:03:27;12.52;;;7.93;;
72949;SDS011;61101;45.710;9.590;2022-07-25T01:05:53;13.45;;;8.52;;
72949;SDS011;61101;45.710;9.590;2022-07-25T01:08:18;14.27;;;8.82;;
72949;SDS011;61101;45.710;9.590;2022-07-25T01:10:44;12.27;;;8.02;;
72949;SDS011;61101;45.710;9.590;2022-07-25T01:13:10;16.85;;;9.02;;
72949;SDS011;61101;45.710;9.590;2022-07-25T01:15:36;12.35;;;8.15;;
72949;SDS011;61101;45.710;9.590;2022-07-25T01:18:01;11.75;;;7.85;;
72949;SDS011;61101;45.710;9.590;2022-07-25T01:20:27;18.13;;;8.07;;
72949;SDS011;61101;45.710;9.590;2022-07-25T01:22:52;12.90;;;7.68;;
72949;SDS011;61101;45.710;9.590;2022-07-25T01:25:18;11.00;;;7.47;;
72949;SDS011;61101;45.710;9.590;2022-07-25T01:27:44;12.90;;;8.50;;
72949;SDS011;61101;45.710;9.590;2022-07-25T01:30:10;13.25;;;8.82;;
72949;SDS011;61101;45.710;9.590;2022-07-25T01:32:35;14.38;;;8.60;;
72949;SDS011;61101;45.710;9.590;2022-07-25T01:35:01;14.50;;;8.00;;
72949;SDS011;61101;45.710;9.590;2022-07-25T01:37:26;12.23;;;8.00;;
72949;SDS011;61101;45.710;9.590;2022-07-25T01:39:51;12.43;;;8.50;;
72949;SDS011;61101;45.710;9.590;2022-07-25T01:42:17;12.55;;;7.68;;
72949;SDS011;61101;45.710;9.590;2022-07-25T01:44:42;11.55;;;9.45;;
72949;SDS011;61101;45.710;9.590;2022-07-25T01:47:08;13.13;;;8.13;;
72949;SDS011;61101;45.710;9.590;2022-07-25T01:49:33;14.35;;;7.97;;
72949;SDS011;61101;45.710;9.590;2022-07-25T01:51:59;13.07;;;8.40;;
72949;SDS011;61101;45.710;9.590;2022-07-25T01:54:24;12.88;;;8.38;;
72949;SDS011;61101;45.710;9.590;2022-07-25T01:56:49;12.88;;;8.35;;
72949;SDS011;61101;45.710;9.590;2022-07-25T01:59:15;14.82;;;8.82;;
72949;SDS011;61101;45.710;9.590;2022-07-25T02:01:40;13.80;;;8.52;;
72949;SDS011;61101;45.710;9.590;2022-07-25T02:04:06;14.15;;;9.05;;
72949;SDS011;61101;45.710;9.590;2022-07-25T02:06:31;16.10;;;9.20;;
72949;SDS011;61101;45.710;9.590;2022-07-25T02:08:59;13.02;;;9.10;;
72949;SDS011;61101;45.710;9.590;2022-07-25T02:11:24;13.10;;;8.47;;
72949;SDS011;61101;45.710;9.590;2022-07-25T02:13:49;15.45;;;9.27;;
72949;SDS011;61101;45.710;9.590;2022-07-25T02:16:14;13.63;;;8.80;;
72949;SDS011;61101;45.710;9.590;2022-07-25T02:18:40;14.15;;;9.18;;
72949;SDS011;61101;45.710;9.590;2022-07-25T02:21:05;11.73;;;8.55;;
72949;SDS011;61101;45.710;9.590;2022-07-25T02:23:32;13.32;;;8.98;;
72949;SDS011;61101;45.710;9.590;2022-07-25T02:25:58;14.43;;;9.02;;
72949;SDS011;61101;45.710;9.590;2022-07-25T02:28:23;13.32;;;9.32;;
72949;SDS011;61101;45.710;9.590;2022-07-25T02:30:48;13.55;;;9.48;;
72949;SDS011;61101;45.710;9.590;2022-07-25T02:33:14;11.75;;;8.73;;
72949;SDS011;61101;45.710;9.590;2022-07-25T02:35:39;11.88;;;8.75;;
72949;SDS011;61101;45.710;9.590;2022-07-25T02:38:04;11.95;;;8.27;;
72949;SDS011;61101;45.710;9.590;2022-07-25T02:40:29;13.02;;;8.90;;
72949;SDS011;61101;45.710;9.590;2022-07-25T02:42:55;16.08;;;9.05;;
72949;SDS011;61101;45.710;9.590;2022-07-25T02:45:20;12.93;;;9.30;;
72949;SDS011;61101;45.710;9.590;2022-07-25T02:47:45;14.80;;;9.23;;
72949;SDS011;61101;45.710;9.590;2022-07-25T02:50:11;12.15;;;8.60;;
72949;SDS011;61101;45.710;9.590;2022-07-25T02:52:36;14.85;;;9.30;;
72949;SDS011;61101;45.710;9.590;2022-07-25T02:55:02;13.43;;;9.40;;
72949;SDS011;61101;45.710;9.590;2022-07-25T02:57:28;14.18;;;9.35;;
72949;SDS011;61101;45.710;9.590;2022-07-25T02:59:53;14.63;;;9.15;;
72949;SDS011;61101;45.710;9.590;2022-07-25T03:02:18;13.88;;;10.02;;
72949;SDS011;61101;45.710;9.590;2022-07-25T03:04:43;11.57;;;8.73;;
72949;SDS011;61101;45.710;9.590;2022-07-25T03:07:09;14.20;;;9.20;;
72949;SDS011;61101;45.710;9.590;2022-07-25T03:09:34;13.43;;;9.38;;
72949;SDS011;61101;45.710;9.590;2022-07-25T03:11:59;13.23;;;9.32;;
72949;SDS011;61101;45.710;9.590;2022-07-25T03:14:25;12.52;;;8.85;;
72949;SDS011;61101;45.710;9.590;2022-07-25T03:16:50;14.30;;;9.05;;
72949;SDS011;61101;45.710;9.590;2022-07-25T03:19:15;13.75;;;8.95;;
72949;SDS011;61101;45.710;9.590;2022-07-25T03:21:41;12.95;;;8.65;;
72949;SDS011;61101;45.710;9.590;2022-07-25T03:24:06;13.40;;;8.45;;
72949;SDS011;61101;45.710;9.590;2022-07-25T03:26:31;11.07;;;8.57;;
72949;SDS011;61101;45.710;9.590;2022-07-25T03:28:57;13.75;;;8.95;;
72949;SDS011;61101;45.710;9.590;2022-07-25T03:31:22;12.40;;;9.23;;
72949;SDS011;61101;45.710;9.590;2022-07-25T03:33:47;14.25;;;8.88;;
72949;SDS011;61101;45.710;9.590;2022-07-25T03:36:12;13.65;;;8.90;;
72949;SDS011;61101;45.710;9.590;2022-07-25T03:38:38;14.85;;;8.40;;
72949;SDS011;61101;45.710;9.590;2022-07-25T03:41:03;15.75;;;9.27;;
72949;SDS011;61101;45.710;9.590;2022-07-25T03:43:29;14.52;;;9.45;;
72949;SDS011;61101;45.710;9.590;2022-07-25T03:45:54;15.23;;;9.27;;
72949;SDS011;61101;45.710;9.590;2022-07-25T03:48:20;17.85;;;9.80;;
72949;SDS011;61101;45.710;9.590;2022-07-25T03:50:45;14.10;;;9.05;;
72949;SDS011;61101;45.710;9.590;2022-07-25T03:53:10;17.13;;;9.05;;
72949;SDS011;61101;45.710;9.590;2022-07-25T03:55:36;11.98;;;8.75;;
72949;SDS011;61101;45.710;9.590;2022-07-25T03:58:01;19.30;;;9.45;;
72949;SDS011;61101;45.710;9.590;2022-07-25T04:00:27;14.52;;;9.32;;
72949;SDS011;61101;45.710;9.590;2022-07-25T04:02:52;15.05;;;9.63;;
72949;SDS011;61101;45.710;9.590;2022-07-25T04:05:17;13.40;;;9.20;;
72949;SDS011;61101;45.710;9.590;2022-07-25T04:07:43;28.50;;;10.25;;
72949;SDS011;61101;45.710;9.590;2022-07-25T04:10:08;14.80;;;9.40;;
72949;SDS011;61101;45.710;9.590;2022-07-25T04:12:34;12.50;;;9.15;;
72949;SDS011;61101;45.710;9.590;2022-07-25T04:14:59;18.02;;;9.73;;
72949;SDS011;61101;45.710;9.590;2022-07-25T04:17:25;18.65;;;9.45;;
72949;SDS011;61101;45.710;9.590;2022-07-25T04:19:50;15.57;;;9.38;;
72949;SDS011;61101;45.710;9.590;2022-07-25T04:22:15;16.05;;;9.68;;
72949;SDS011;61101;45.710;9.590;2022-07-25T04:24:41;17.02;;;10.27;;
72949;SDS011;61101;45.710;9.590;2022-07-25T04:27:06;15.32;;;9.73;;
72949;SDS011;61101;45.710;9.590;2022-07-25T04:29:31;15.18;;;9.63;;
72949;SDS011;61101;45.710;9.590;2022-07-25T04:31:57;16.67;;;9.57;;
72949;SDS011;61101;45.710;9.590;2022-07-25T04:34:22;19.23;;;9.30;;
72949;SDS011;61101;45.710;9.590;2022-07-25T04:36:47;12.73;;;9.93;;
72949;SDS011;61101;45.710;9.590;2022-07-25T04:39:13;15.70;;;9.85;;
72949;SDS011;61101;45.710;9.590;2022-07-25T04:41:38;18.40;;;10.15;;
72949;SDS011;61101;45.710;9.590;2022-07-25T04:44:03;13.45;;;9.68;;
72949;SDS011;61101;45.710;9.590;2022-07-25T04:46:31;22.55;;;9.50;;
72949;SDS011;61101;45.710;9.590;2022-07-25T04:48:56;17.13;;;9.48;;
72949;SDS011;61101;45.710;9.590;2022-07-25T04:51:22;14.88;;;8.93;;
72949;SDS011;61101;45.710;9.590;2022-07-25T04:53:47;17.88;;;9.45;;
72949;SDS011;61101;45.710;9.590;2022-07-25T04:56:13;15.43;;;8.88;;
72949;SDS011;61101;45.710;9.590;2022-07-25T04:58:38;15.02;;;9.35;;
72949;SDS011;61101;45.710;9.590;2022-07-25T05:01:04;22.98;;;9.77;;
72949;SDS011;61101;45.710;9.590;2022-07-25T05:03:29;15.85;;;9.93;;
72949;SDS011;61101;45.710;9.590;2022-07-25T05:05:55;23.10;;;10.13;;
72949;SDS011;61101;45.710;9.590;2022-07-25T05:08:20;21.45;;;10.00;;
72949;SDS011;61101;45.710;9.590;2022-07-25T05:10:45;15.63;;;11.02;;
72949;SDS011;61101;45.710;9.590;2022-07-25T05:13:10;16.55;;;9.10;;
72949;SDS011;61101;45.710;9.590;2022-07-25T05:15:36;15.93;;;9.20;;
72949;SDS011;61101;45.710;9.590;2022-07-25T05:18:01;21.58;;;10.90;;
72949;SDS011;61101;45.710;9.590;2022-07-25T05:20:26;19.48;;;10.18;;
72949;SDS011;61101;45.710;9.590;2022-07-25T05:22:52;13.00;;;9.57;;
72949;SDS011;61101;45.710;9.590;2022-07-25T05:25:17;12.27;;;9.77;;
72949;SDS011;61101;45.710;9.590;2022-07-25T05:27:43;13.45;;;9.30;;
72949;SDS011;61101;45.710;9.590;2022-07-25T05:30:09;15.48;;;10.48;;
72949;SDS011;61101;45.710;9.590;2022-07-25T05:32:35;18.70;;;10.27;;
72949;SDS011;61101;45.710;9.590;2022-07-25T05:35:01;18.45;;;9.75;;
72949;SDS011;61101;45.710;9.590;2022-07-25T05:37:26;14.35;;;9.38;;
72949;SDS011;61101;45.710;9.590;2022-07-25T05:39:52;14.30;;;10.13;;
72949;SDS011;61101;45.710;9.590;2022-07-25T05:42:17;21.17;;;9.95;;
72949;SDS011;61101;45.710;9.590;2022-07-25T05:44:42;13.90;;;9.95;;
72949;SDS011;61101;45.710;9.590;2022-07-25T05:47:11;21.88;;;10.30;;
72949;SDS011;61101;45.710;9.590;2022-07-25T05:49:36;15.30;;;9.32;;
72949;SDS011;61101;45.710;9.590;2022-07-25T05:52:02;16.88;;;9.60;;
72949;SDS011;61101;45.710;9.590;2022-07-25T05:54:27;20.73;;;10.10;;
72949;SDS011;61101;45.710;9.590;2022-07-25T05:56:53;13.55;;;9.35;;
72949;SDS011;61101;45.710;9.590;2022-07-25T05:59:18;16.23;;;9.32;;
72949;SDS011;61101;45.710;9.590;2022-07-25T06:01:44;13.55;;;9.40;;
72949;SDS011;61101;45.710;9.590;2022-07-25T06:04:09;15.90;;;10.07;;
72949;SDS011;61101;45.710;9.590;2022-07-25T06:06:35;13.40;;;9.90;;
72949;SDS011;61101;45.710;9.590;2022-07-25T06:09:00;16.10;;;9.52;;
72949;SDS011;61101;45.710;9.590;2022-07-25T06:11:26;16.92;;;10.60;;
72949;SDS011;61101;45.710;9.590;2022-07-25T06:13:52;16.17;;;9.45;;
72949;SDS011;61101;45.710;9.590;2022-07-25T06:16:18;17.05;;;9.63;;
72949;SDS011;61101;45.710;9.590;2022-07-25T06:18:45;16.40;;;9.63;;
72949;SDS011;61101;45.710;9.590;2022-07-25T06:21:10;17.88;;;10.27;;
72949;SDS011;61101;45.710;9.590;2022-07-25T06:23:36;16.65;;;10.32;;
72949;SDS011;61101;45.710;9.590;2022-07-25T06:26:01;15.05;;;10.35;;
72949;SDS011;61101;45.710;9.590;2022-07-25T06:28:27;13.35;;;9.38;;
72949;SDS011;61101;45.710;9.590;2022-07-25T06:30:52;16.80;;;9.27;;
72949;SDS011;61101;45.710;9.590;2022-07-25T06:33:17;13.05;;;9.13;;
72949;SDS011;61101;45.710;9.590;2022-07-25T06:35:43;13.45;;;8.57;;
72949;SDS011;61101;45.710;9.590;2022-07-25T06:38:08;16.85;;;9.25;;
72949;SDS011;61101;45.710;9.590;2022-07-25T06:40:33;17.23;;;8.93;;
72949;SDS011;61101;45.710;9.590;2022-07-25T06:42:58;13.18;;;9.20;;
72949;SDS011;61101;45.710;9.590;2022-07-25T06:45:24;12.13;;;8.52;;
72949;SDS011;61101;45.710;9.590;2022-07-25T06:47:49;14.07;;;8.30;;
72949;SDS011;61101;45.710;9.590;2022-07-25T06:50:16;11.73;;;8.45;;
72949;SDS011;61101;45.710;9.590;2022-07-25T06:52:42;13.68;;;9.20;;
72949;SDS011;61101;45.710;9.590;2022-07-25T06:55:08;14.70;;;8.40;;
72949;SDS011;61101;45.710;9.590;2022-07-25T06:57:34;16.05;;;9.07;;
72949;SDS011;61101;45.710;9.590;2022-07-25T06:59:59;13.40;;;8.70;;
72949;SDS011;61101;45.710;9.590;2022-07-25T07:02:25;16.08;;;9.00;;
72949;SDS011;61101;45.710;9.590;2022-07-25T07:04:50;12.00;;;8.25;;
72949;SDS011;61101;45.710;9.590;2022-07-25T07:07:16;15.43;;;9.10;;
72949;SDS011;61101;45.710;9.590;2022-07-25T07:09:41;14.30;;;8.52;;
72949;SDS011;61101;45.710;9.590;2022-07-25T07:12:07;14.30;;;8.52;;
72949;SDS011;61101;45.710;9.590;2022-07-25T07:14:32;11.77;;;8.15;;
72949;SDS011;61101;45.710;9.590;2022-07-25T07:16:57;13.50;;;7.95;;
72949;SDS011;61101;45.710;9.590;2022-07-25T07:19:23;14.18;;;7.97;;
72949;SDS011;61101;45.710;9.590;2022-07-25T07:21:48;12.68;;;7.60;;
72949;SDS011;61101;45.710;9.590;2022-07-25T07:24:15;10.75;;;7.13;;
72949;SDS011;61101;45.710;9.590;2022-07-25T07:26:40;13.88;;;7.15;;
72949;SDS011;61101;45.710;9.590;2022-07-25T07:29:06;13.35;;;6.75;;
72949;SDS011;61101;45.710;9.590;2022-07-25T07:31:31;13.18;;;7.10;;
72949;SDS011;61101;45.710;9.590;2022-07-25T07:33:56;11.35;;;6.85;;
72949;SDS011;61101;45.710;9.590;2022-07-25T07:36:24;9.93;;;5.65;;
72949;SDS011;61101;45.710;9.590;2022-07-25T07:38:49;9.93;;;4.88;;
72949;SDS011;61101;45.710;9.590;2022-07-25T07:41:16;10.70;;;5.88;;
72949;SDS011;61101;45.710;9.590;2022-07-25T07:43:42;12.20;;;6.70;;
72949;SDS011;61101;45.710;9.590;2022-07-25T07:46:07;11.52;;;6.13;;
72949;SDS011;61101;45.710;9.590;2022-07-25T07:48:32;13.83;;;7.20;;
72949;SDS011;61101;45.710;9.590;2022-07-25T07:50:58;12.93;;;6.78;;
72949;SDS011;61101;45.710;9.590;2022-07-25T07:53:24;27.05;;;7.03;;
72949;SDS011;61101;45.710;9.590;2022-07-25T07:56:08;15.63;;;6.13;;
72949;SDS011;61101;45.710;9.590;2022-07-25T07:58:33;9.85;;;6.38;;
72949;SDS011;61101;45.710;9.590;2022-07-25T08:00:59;12.55;;;6.50;;
72949;SDS011;61101;45.710;9.590;2022-07-25T08:03:24;13.88;;;6.82;;
72949;SDS011;61101;45.710;9.590;2022-07-25T08:05:49;11.10;;;5.40;;
72949;SDS011;61101;45.710;9.590;2022-07-25T08:08:16;14.10;;;7.68;;
72949;SDS011;61101;45.710;9.590;2022-07-25T08:10:43;10.95;;;6.97;;
72949;SDS011;61101;45.710;9.590;2022-07-25T08:13:15;11.18;;;6.80;;
72949;SDS011;61101;45.710;9.590;2022-07-25T08:15:41;10.45;;;7.32;;
72949;SDS011;61101;45.710;9.590;2022-07-25T08:18:07;12.57;;;7.05;;
72949;SDS011;61101;45.710;9.590;2022-07-25T08:20:32;10.82;;;6.15;;
72949;SDS011;61101;45.710;9.590;2022-07-25T08:22:58;10.63;;;7.45;;
72949;SDS011;61101;45.710;9.590;2022-07-25T08:25:24;11.70;;;7.30;;
72949;SDS011;61101;45.710;9.590;2022-07-25T08:27:49;14.13;;;7.78;;
72949;SDS011;61101;45.710;9.590;2022-07-25T08:30:15;12.52;;;7.30;;
72949;SDS011;61101;45.710;9.590;2022-07-25T08:32:47;10.85;;;7.55;;
72949;SDS011;61101;45.710;9.590;2022-07-25T08:35:13;12.50;;;7.32;;
72949;SDS011;61101;45.710;9.590;2022-07-25T08:37:39;16.35;;;6.25;;
72949;SDS011;61101;45.710;9.590;2022-07-25T08:40:04;14.77;;;7.70;;
72949;SDS011;61101;45.710;9.590;2022-07-25T08:42:29;14.25;;;6.22;;
72949;SDS011;61101;45.710;9.590;2022-07-25T08:44:57;12.13;;;6.80;;
72949;SDS011;61101;45.710;9.590;2022-07-25T08:47:23;16.27;;;6.40;;
72949;SDS011;61101;45.710;9.590;2022-07-25T08:49:49;11.85;;;6.45;;
72949;SDS011;61101;45.710;9.590;2022-07-25T08:52:14;14.38;;;7.13;;
72949;SDS011;61101;45.710;9.590;2022-07-25T08:54:39;16.10;;;5.90;;
72949;SDS011;61101;45.710;9.590;2022-07-25T08:57:05;16.58;;;6.75;;
72949;SDS011;61101;45.710;9.590;2022-07-25T08:59:30;15.80;;;7.22;;
72949;SDS011;61101;45.710;9.590;2022-07-25T09:01:56;12.68;;;7.07;;
72949;SDS011;61101;45.710;9.590;2022-07-25T09:04:24;10.77;;;7.18;;
72949;SDS011;61101;45.710;9.590;2022-07-25T09:06:50;15.40;;;7.28;;
72949;SDS011;61101;45.710;9.590;2022-07-25T09:09:16;19.25;;;5.88;;
72949;SDS011;61101;45.710;9.590;2022-07-25T09:11:41;11.52;;;6.88;;
72949;SDS011;61101;45.710;9.590;2022-07-25T09:14:07;15.68;;;7.10;;
72949;SDS011;61101;45.710;9.590;2022-07-25T09:16:35;15.65;;;6.35;;
72949;SDS011;61101;45.710;9.590;2022-07-25T09:19:14;14.80;;;5.95;;
72949;SDS011;61101;45.710;9.590;2022-07-25T09:21:40;10.23;;;5.28;;
72949;SDS011;61101;45.710;9.590;2022-07-25T09:24:06;11.32;;;5.30;;
72949;SDS011;61101;45.710;9.590;2022-07-25T09:26:41;11.30;;;6.95;;
72949;SDS011;61101;45.710;9.590;2022-07-25T09:29:06;10.75;;;6.10;;
72949;SDS011;61101;45.710;9.590;2022-07-25T09:31:32;10.52;;;5.40;;
72949;SDS011;61101;45.710;9.590;2022-07-25T09:33:58;8.00;;;4.88;;
72949;SDS011;61101;45.710;9.590;2022-07-25T09:36:25;10.73;;;5.88;;
72949;SDS011;61101;45.710;9.590;2022-07-25T09:38:54;11.45;;;5.22;;
72949;SDS011;61101;45.710;9.590;2022-07-25T09:41:20;10.55;;;5.30;;
72949;SDS011;61101;45.710;9.590;2022-07-25T09:43:45;10.23;;;5.75;;
72949;SDS011;61101;45.710;9.590;2022-07-25T09:46:11;8.40;;;5.10;;
72949;SDS011;61101;45.710;9.590;2022-07-25T09:48:38;9.07;;;4.90;;
72949;SDS011;61101;45.710;9.590;2022-07-25T09:51:04;12.98;;;5.13;;
72949;SDS011;61101;45.710;9.590;2022-07-25T09:53:31;9.10;;;4.68;;
72949;SDS011;61101;45.710;9.590;2022-07-25T09:55:56;12.35;;;5.90;;
72949;SDS011;61101;45.710;9.590;2022-07-25T09:58:22;8.75;;;4.97;;
72949;SDS011;61101;45.710;9.590;2022-07-25T10:00:48;13.70;;;5.32;;
72949;SDS011;61101;45.710;9.590;2022-07-25T10:03:19;12.00;;;5.35;;
72949;SDS011;61101;45.710;9.590;2022-07-25T10:08:21;13.40;;;5.80;;
72949;SDS011;61101;45.710;9.590;2022-07-25T10:10:48;10.93;;;4.63;;
72949;SDS011;61101;45.710;9.590;2022-07-25T10:13:14;10.32;;;4.20;;
72949;SDS011;61101;45.710;9.590;2022-07-25T10:18:06;8.43;;;5.40;;
72949;SDS011;61101;45.710;9.590;2022-07-25T10:20:32;10.57;;;5.72;;
72949;SDS011;61101;45.710;9.590;2022-07-25T10:22:58;9.10;;;5.47;;
72949;SDS011;61101;45.710;9.590;2022-07-25T10:25:23;10.13;;;5.85;;
72949;SDS011;61101;45.710;9.590;2022-07-25T10:27:49;11.77;;;5.80;;
72949;SDS011;61101;45.710;9.590;2022-07-25T10:30:26;9.65;;;4.78;;
72949;SDS011;61101;45.710;9.590;2022-07-25T10:32:59;11.15;;;5.22;;
72949;SDS011;61101;45.710;9.590;2022-07-25T10:35:25;8.48;;;4.97;;
72949;SDS011;61101;45.710;9.590;2022-07-25T10:37:51;12.50;;;5.22;;
72949;SDS011;61101;45.710;9.590;2022-07-25T10:40:24;10.68;;;5.55;;
72949;SDS011;61101;45.710;9.590;2022-07-25T10:42:50;8.77;;;6.20;;
72949;SDS011;61101;45.710;9.590;2022-07-25T10:45:20;9.75;;;5.70;;
72949;SDS011;61101;45.710;9.590;2022-07-25T10:47:50;11.98;;;6.35;;
72949;SDS011;61101;45.710;9.590;2022-07-25T10:50:15;10.75;;;5.70;;
72949;SDS011;61101;45.710;9.590;2022-07-25T10:52:42;8.70;;;5.43;;
72949;SDS011;61101;45.710;9.590;2022-07-25T10:55:08;11.07;;;6.65;;
72949;SDS011;61101;45.710;9.590;2022-07-25T10:57:34;12.68;;;5.97;;
72949;SDS011;61101;45.710;9.590;2022-07-25T11:00:06;10.73;;;6.15;;
72949;SDS011;61101;45.710;9.590;2022-07-25T11:02:32;11.93;;;5.70;;
72949;SDS011;61101;45.710;9.590;2022-07-25T11:04:58;14.35;;;6.32;;
72949;SDS011;61101;45.710;9.590;2022-07-25T11:07:24;10.77;;;6.00;;
72949;SDS011;61101;45.710;9.590;2022-07-25T11:09:56;11.70;;;6.75;;
72949;SDS011;61101;45.710;9.590;2022-07-25T11:12:22;11.07;;;5.50;;
72949;SDS011;61101;45.710;9.590;2022-07-25T11:14:47;12.68;;;6.65;;
72949;SDS011;61101;45.710;9.590;2022-07-25T11:19:42;8.82;;;5.68;;
72949;SDS011;61101;45.710;9.590;2022-07-25T11:22:08;15.40;;;6.45;;
72949;SDS011;61101;45.710;9.590;2022-07-25T11:24:38;10.25;;;6.03;;
72949;SDS011;61101;45.710;9.590;2022-07-25T11:27:04;13.13;;;5.70;;
72949;SDS011;61101;45.710;9.590;2022-07-25T11:29:30;10.02;;;6.38;;
72949;SDS011;61101;45.710;9.590;2022-07-25T11:31:57;11.32;;;5.80;;
72949;SDS011;61101;45.710;9.590;2022-07-25T11:34:26;13.40;;;7.07;;
72949;SDS011;61101;45.710;9.590;2022-07-25T11:36:53;12.02;;;5.63;;
72949;SDS011;61101;45.710;9.590;2022-07-25T11:39:21;9.73;;;6.43;;
72949;SDS011;61101;45.710;9.590;2022-07-25T11:41:56;11.13;;;5.57;;
72949;SDS011;61101;45.710;9.590;2022-07-25T11:46:56;13.10;;;6.55;;
72949;SDS011;61101;45.710;9.590;2022-07-25T11:49:21;10.77;;;6.13;;
72949;SDS011;61101;45.710;9.590;2022-07-25T11:51:46;11.53;;;5.80;;
72949;SDS011;61101;45.710;9.590;2022-07-25T11:54:12;16.80;;;5.93;;
72949;SDS011;61101;45.710;9.590;2022-07-25T11:56:37;11.05;;;6.32;;
72949;SDS011;61101;45.710;9.590;2022-07-25T11:59:03;11.10;;;6.30;;
72949;SDS011;61101;45.710;9.590;2022-07-25T12:01:35;9.18;;;6.38;;
72949;SDS011;61101;45.710;9.590;2022-07-25T12:04:14;12.10;;;6.25;;
72949;SDS011;61101;45.710;9.590;2022-07-25T12:06:41;14.80;;;5.68;;
72949;SDS011;61101;45.710;9.590;2022-07-25T12:09:17;14.40;;;5.90;;
72949;SDS011;61101;45.710;9.590;2022-07-25T12:11:43;11.65;;;6.75;;
72949;SDS011;61101;45.710;9.590;2022-07-25T12:14:08;11.85;;;5.68;;
72949;SDS011;61101;45.710;9.590;2022-07-25T12:16:34;9.45;;;6.43;;
72949;SDS011;61101;45.710;9.590;2022-07-25T12:19:00;12.85;;;6.60;;
72949;SDS011;61101;45.710;9.590;2022-07-25T12:21:26;11.70;;;6.93;;
72949;SDS011;61101;45.710;9.590;2022-07-25T12:23:51;13.55;;;6.03;;
72949;SDS011;61101;45.710;9.590;2022-07-25T12:26:17;9.70;;;6.13;;
72949;SDS011;61101;45.710;9.590;2022-07-25T12:28:42;10.45;;;6.43;;
72949;SDS011;61101;45.710;9.590;2022-07-25T12:31:07;11.43;;;5.82;;
72949;SDS011;61101;45.710;9.590;2022-07-25T12:33:34;13.85;;;7.25;;
72949;SDS011;61101;45.710;9.590;2022-07-25T12:36:00;11.52;;;7.03;;
72949;SDS011;61101;45.710;9.590;2022-07-25T12:38:25;15.40;;;6.45;;
72949;SDS011;61101;45.710;9.590;2022-07-25T12:40:51;13.80;;;6.90;;
72949;SDS011;61101;45.710;9.590;2022-07-25T12:43:16;14.15;;;7.28;;
72949;SDS011;61101;45.710;9.590;2022-07-25T12:45:41;12.27;;;5.78;;
72949;SDS011;61101;45.710;9.590;2022-07-25T12:48:07;15.70;;;6.90;;
72949;SDS011;61101;45.710;9.590;2022-07-25T12:50:33;9.98;;;5.72;;
72949;SDS011;61101;45.710;9.590;2022-07-25T12:52:58;11.95;;;6.72;;
72949;SDS011;61101;45.710;9.590;2022-07-25T12:55:24;17.10;;;6.72;;
72949;SDS011;61101;45.710;9.590;2022-07-25T12:57:49;11.80;;;5.60;;
72949;SDS011;61101;45.710;9.590;2022-07-25T13:00:15;14.75;;;6.05;;
72949;SDS011;61101;45.710;9.590;2022-07-25T13:02:42;14.38;;;6.18;;
72949;SDS011;61101;45.710;9.590;2022-07-25T13:05:07;10.27;;;6.57;;
72949;SDS011;61101;45.710;9.590;2022-07-25T13:07:33;10.25;;;6.22;;
72949;SDS011;61101;45.710;9.590;2022-07-25T13:09:58;9.65;;;5.63;;
72949;SDS011;61101;45.710;9.590;2022-07-25T13:12:24;12.75;;;6.38;;
72949;SDS011;61101;45.710;9.590;2022-07-25T13:14:49;11.55;;;7.40;;
72949;SDS011;61101;45.710;9.590;2022-07-25T13:17:15;11.20;;;6.25;;
72949;SDS011;61101;45.710;9.590;2022-07-25T13:19:41;12.63;;;6.63;;
72949;SDS011;61101;45.710;9.590;2022-07-25T13:22:07;26.63;;;7.40;;
72949;SDS011;61101;45.710;9.590;2022-07-25T13:24:33;12.55;;;6.55;;
72949;SDS011;61101;45.710;9.590;2022-07-25T13:27:01;16.30;;;7.65;;
72949;SDS011;61101;45.710;9.590;2022-07-25T13:29:27;10.77;;;5.85;;
72949;SDS011;61101;45.710;9.590;2022-07-25T13:31:52;13.55;;;6.50;;
72949;SDS011;61101;45.710;9.590;2022-07-25T13:34:18;11.73;;;7.15;;
72949;SDS011;61101;45.710;9.590;2022-07-25T13:36:43;11.90;;;6.80;;
72949;SDS011;61101;45.710;9.590;2022-07-25T13:39:09;10.60;;;7.00;;
72949;SDS011;61101;45.710;9.590;2022-07-25T13:41:34;12.40;;;6.63;;
72949;SDS011;61101;45.710;9.590;2022-07-25T13:44:02;12.23;;;6.63;;
72949;SDS011;61101;45.710;9.590;2022-07-25T13:46:27;12.88;;;6.72;;
72949;SDS011;61101;45.710;9.590;2022-07-25T13:48:53;12.33;;;7.40;;
72949;SDS011;61101;45.710;9.590;2022-07-25T13:51:19;12.68;;;6.75;;
72949;SDS011;61101;45.710;9.590;2022-07-25T13:53:44;9.93;;;7.07;;
72949;SDS011;61101;45.710;9.590;2022-07-25T13:56:10;13.30;;;6.68;;
72949;SDS011;61101;45.710;9.590;2022-07-25T13:58:35;14.98;;;7.60;;
72949;SDS011;61101;45.710;9.590;2022-07-25T14:01:00;11.50;;;6.72;;
72949;SDS011;61101;45.710;9.590;2022-07-25T14:03:26;15.45;;;6.57;;
72949;SDS011;61101;45.710;9.590;2022-07-25T14:05:51;20.17;;;7.13;;
72949;SDS011;61101;45.710;9.590;2022-07-25T14:08:17;18.27;;;7.60;;
72949;SDS011;61101;45.710;9.590;2022-07-25T14:10:43;14.73;;;6.40;;
72949;SDS011;61101;45.710;9.590;2022-07-25T14:13:10;11.13;;;7.45;;
72949;SDS011;61101;45.710;9.590;2022-07-25T14:15:37;12.90;;;6.97;;
72949;SDS011;61101;45.710;9.590;2022-07-25T14:18:11;12.07;;;6.53;;
72949;SDS011;61101;45.710;9.590;2022-07-25T14:20:36;13.10;;;7.20;;
72949;SDS011;61101;45.710;9.590;2022-07-25T14:23:02;12.13;;;7.15;;
72949;SDS011;61101;45.710;9.590;2022-07-25T14:25:27;10.63;;;5.95;;
72949;SDS011;61101;45.710;9.590;2022-07-25T14:27:52;14.15;;;6.75;;
72949;SDS011;61101;45.710;9.590;2022-07-25T14:30:19;11.20;;;8.00;;
72949;SDS011;61101;45.710;9.590;2022-07-25T14:32:44;10.02;;;6.63;;
72949;SDS011;61101;45.710;9.590;2022-07-25T14:35:10;12.57;;;7.32;;
72949;SDS011;61101;45.710;9.590;2022-07-25T14:37:37;14.32;;;7.45;;